首页
METAR-TAF:

METAR-TAF

机场 :

伊魁特機場

伊魁特, 努那武特, 加拿大

纬度: 63-45N, 经度: 068-33W, 海拔: 34米

当前天气观测

该预报发布于37分钟前的12:00 UTC
风速14节,风向北转西北
温度 9°C
湿度 93%
气压 1003 hPa
能見度: 48.3公里
少量云层高于1400英尺
多云层高于2800英尺
阴天层高于6100英尺

METAR: CYFB 181200Z 33014KT 30SM FEW014 BKN028 OVC061 09/08 A2961 RMK SC2SC3SC3 SLP031

时间: 08:37 (12:37 UTC)

预报

该预报发布于59分钟前的11:38 UTC
预报有效从18日的 12点(UTC)到 19日的 12点(UTC)
风速12节,风向西北
能見度: 10公里
少量云层高于800英尺
散云层高于1200英尺
阴天层高于3000英尺
短暂存在
从 18日的 12点(UTC)到 18日的 15点(UTC)
能見度: 10公里
多云层高于800英尺
阴天层高于1200英尺
小阵雨
从 18日的 1500点(UTC)
风速12节,风向西北
能見度: 10公里
多云层高于2500英尺
短暂存在
从 18日的 15点(UTC)到 18日的 20点(UTC)
散云层高于800英尺
多云层高于2000英尺
从 18日的 2000点(UTC)
风速12节,风向西北
能見度: 10公里
散云层高于2500英尺

TAF: CYFB 181138Z 1812/1912 32012KT P6SM FEW008 SCT012 OVC030 TEMPO 1812/1815 P6SM -SHRA BKN008 OVC012 FM181500 32012KT P6SM BKN025 TEMPO 1815/1820 SCT008 BKN020 FM182000 32012KT P6SM SCT025 RMK NXT FCST BY 181800Z

超过4000个机场的气象观测和天气预报(METAR&TAF报告)。

可查询的气象台以黄色和红色小点在地图上表示。

将鼠标移到小点上方,可查看气象台名称。

然后点击查看天气观测和预报。

如需切换地图:点击带黑十字的绿色按钮放大地图;点击带横线的绿色按钮缩小地图;或者点击绿色箭头查看邻近地区的地图。


METAR-TAF: